Time;durP1;ratioP1;P1;durP2;ratioP2;P2;SDS_P1;SDS_P2;PMS_P1;PMS_P2;Temp;Humidity;BMP_temperature;BMP_pressure;BME280_temperature;BME280_humidity;BME280_pressure;Samples;Min_cycle;Max_cycle;Signal;HPM_P1;HPM_P2
2022/03/28 00:01:11;;;;;;;14.45;5.93;;;8.40;78.30;;;;;;6286566;28;20103;-80
2022/03/28 00:04:13;;;;;;;10.95;5.60;;;8.30;78.20;;;;;;6288717;28;20049;-80
2022/03/28 00:07:14;;;;;;;14.27;6.32;;;8.20;78.20;;;;;;6287544;28;20100;-79
2022/03/28 00:10:16;;;;;;;13.05;5.30;;;8.20;78.60;;;;;;6287072;28;20069;-79
2022/03/28 00:13:18;;;;;;;14.23;5.93;;;8.20;79.00;;;;;;6283095;28;20295;-81
2022/03/28 00:16:21;;;;;;;15.25;6.65;;;8.20;78.80;;;;;;6287432;28;20053;-80
2022/03/28 00:19:23;;;;;;;9.88;5.15;;;8.10;78.80;;;;;;6288915;28;20055;-80
2022/03/28 00:22:25;;;;;;;15.40;6.80;;;8.10;79.00;;;;;;6288773;28;20084;-80
2022/03/28 00:25:27;;;;;;;8.88;4.97;;;8.10;79.00;;;;;;6289360;28;20124;-80
2022/03/28 00:28:29;;;;;;;20.15;6.53;;;8.00;79.10;;;;;;6282158;28;20139;-79
2022/03/28 00:31:32;;;;;;;12.30;6.25;;;8.00;79.10;;;;;;6282023;28;20112;-79
2022/03/28 00:34:33;;;;;;;15.63;6.32;;;7.90;79.50;;;;;;6288074;28;20045;-79
2022/03/28 00:37:37;;;;;;;21.65;6.43;;;7.90;80.20;;;;;;6284031;28;20087;-79
2022/03/28 00:40:40;;;;;;;12.95;5.88;;;7.80;80.40;;;;;;6283769;28;20055;-79
2022/03/28 00:43:45;;;;;;;17.80;6.47;;;7.70;80.50;;;;;;6285662;28;20116;-79
2022/03/28 00:46:49;;;;;;;11.02;5.45;;;7.70;80.70;;;;;;6282526;28;20084;-78
2022/03/28 00:49:51;;;;;;;21.67;8.88;;;7.70;81.20;;;;;;6282979;28;20422;-79
2022/03/28 00:52:53;;;;;;;10.43;5.38;;;7.60;81.20;;;;;;6283035;28;20094;-79
2022/03/28 00:55:55;;;;;;;13.25;6.97;;;7.50;81.20;;;;;;6286464;28;20052;-79
2022/03/28 00:58:58;;;;;;;12.25;6.80;;;7.50;81.40;;;;;;6283760;28;20045;-79
2022/03/28 01:02:02;;;;;;;24.83;6.57;;;7.50;81.70;;;;;;6285083;28;20055;-79
2022/03/28 01:05:04;;;;;;;17.73;6.30;;;7.50;81.40;;;;;;6287510;28;20392;-79
2022/03/28 01:08:06;;;;;;;14.38;5.20;;;7.30;81.30;;;;;;6284111;28;20060;-79
2022/03/28 01:11:10;;;;;;;13.15;6.00;;;7.30;81.40;;;;;;6285635;28;20544;-79
2022/03/28 01:14:12;;;;;;;12.02;5.75;;;7.20;81.80;;;;;;6286244;28;20049;-79
2022/03/28 01:20:39;;;;;;;17.88;7.00;;;7.20;82.30;;;;;;6287871;28;20044;-80
2022/03/28 01:23:43;;;;;;;11.98;5.63;;;7.20;82.30;;;;;;6283925;28;20122;-80
2022/03/28 01:26:47;;;;;;;13.07;6.63;;;7.10;82.50;;;;;;6287110;28;20041;-79
2022/03/28 01:29:49;;;;;;;22.17;7.47;;;7.10;82.50;;;;;;6280364;28;20056;-79
2022/03/28 01:32:52;;;;;;;14.38;6.45;;;7.00;82.80;;;;;;6278762;28;20087;-80
2022/03/28 01:35:54;;;;;;;15.13;5.85;;;6.90;83.10;;;;;;6277240;28;20052;-79
2022/03/28 01:38:57;;;;;;;11.07;5.68;;;6.90;83.30;;;;;;6281367;28;20072;-80
2022/03/28 01:41:59;;;;;;;11.80;5.45;;;6.80;83.40;;;;;;6282442;28;20132;-79
2022/03/28 01:45:01;;;;;;;12.20;4.68;;;6.80;83.40;;;;;;6283063;28;20045;-79
2022/03/28 01:48:03;;;;;;;9.50;5.03;;;6.70;83.10;;;;;;6280532;28;20463;-80
2022/03/28 01:51:05;;;;;;;12.77;5.38;;;6.70;83.70;;;;;;6276696;28;20136;-80
2022/03/28 01:54:08;;;;;;;12.32;5.63;;;6.60;83.60;;;;;;6273565;28;20052;-78
2022/03/28 01:57:10;;;;;;;17.23;5.70;;;6.60;83.90;;;;;;6273035;28;20132;-78
2022/03/28 02:00:14;;;;;;;11.10;5.57;;;6.60;84.30;;;;;;6271422;28;20139;-77
2022/03/28 02:03:16;;;;;;;8.48;4.97;;;6.50;84.20;;;;;;6271968;28;20052;-78
2022/03/28 02:06:18;;;;;;;15.60;6.22;;;6.40;84.70;;;;;;6271708;28;20140;-80
2022/03/28 02:09:21;;;;;;;17.30;5.25;;;6.40;85.10;;;;;;6270209;28;20521;-78
2022/03/28 02:12:23;;;;;;;9.77;5.20;;;6.40;85.00;;;;;;6272004;28;20041;-80
2022/03/28 02:15:25;;;;;;;8.77;5.38;;;6.30;85.20;;;;;;6273107;28;20053;-79
2022/03/28 02:18:27;;;;;;;11.60;5.57;;;6.30;84.90;;;;;;6272594;28;20051;-78
2022/03/28 02:21:29;;;;;;;14.73;5.97;;;6.30;85.00;;;;;;6272638;28;20049;-80
2022/03/28 02:24:32;;;;;;;12.32;6.07;;;6.20;85.10;;;;;;6272077;28;20123;-78
2022/03/28 02:27:34;;;;;;;9.85;4.82;;;6.20;85.60;;;;;;6271986;28;20049;-79
2022/03/28 02:30:36;;;;;;;13.93;5.65;;;6.10;85.50;;;;;;6272305;28;20045;-78
2022/03/28 02:33:38;;;;;;;14.82;5.57;;;6.00;85.90;;;;;;6272202;28;20041;-80
2022/03/28 02:36:39;;;;;;;14.18;5.70;;;6.00;86.10;;;;;;6270221;28;20557;-80
2022/03/28 02:39:43;;;;;;;9.88;4.97;;;6.00;86.20;;;;;;6269134;28;20399;-79
2022/03/28 02:42:44;;;;;;;18.45;5.03;;;6.00;86.50;;;;;;6278545;28;20049;-80
2022/03/28 02:45:46;;;;;;;12.70;6.03;;;5.90;86.60;;;;;;6280019;28;20048;-79
2022/03/28 02:48:48;;;;;;;12.73;6.18;;;5.90;86.60;;;;;;6275664;28;20049;-80
2022/03/28 02:51:50;;;;;;;17.77;6.13;;;5.90;86.70;;;;;;6276354;28;20136;-79
2022/03/28 02:54:54;;;;;;;16.90;5.78;;;5.90;86.80;;;;;;6281652;28;20041;-80
2022/03/28 02:57:56;;;;;;;12.77;5.75;;;5.80;86.60;;;;;;6272695;28;20132;-80
2022/03/28 03:00:58;;;;;;;12.98;5.82;;;5.80;86.40;;;;;;6271252;28;20045;-79
2022/03/28 03:04:00;;;;;;;12.70;5.05;;;5.70;86.30;;;;;;6273664;28;20053;-80
2022/03/28 03:07:02;;;;;;;12.40;5.63;;;5.80;86.50;;;;;;6274016;28;20052;-79
2022/03/28 03:10:07;;;;;;;12.27;5.22;;;5.70;86.20;;;;;;6269588;28;20049;-81
2022/03/28 03:13:09;;;;;;;13.23;5.53;;;5.70;85.80;;;;;;6272290;28;20367;-80
2022/03/28 03:16:11;;;;;;;13.40;5.30;;;5.70;85.60;;;;;;6278203;28;20397;-80
2022/03/28 03:19:13;;;;;;;14.32;5.03;;;5.60;86.10;;;;;;6277207;28;20053;-79
2022/03/28 03:22:15;;;;;;;13.48;5.25;;;5.50;86.00;;;;;;6276034;28;20055;-77
2022/03/28 03:25:18;;;;;;;11.43;4.95;;;5.50;86.10;;;;;;6277023;28;20123;-80
2022/03/28 03:28:21;;;;;;;10.57;6.40;;;5.50;86.20;;;;;;6283643;28;20530;-80
2022/03/28 03:31:22;;;;;;;10.43;4.88;;;5.40;86.60;;;;;;6282700;28;20053;-78
2022/03/28 03:34:24;;;;;;;12.90;5.40;;;5.40;86.70;;;;;;6285273;28;20072;-80
2022/03/28 03:37:28;;;;;;;9.50;4.95;;;5.30;87.10;;;;;;6284777;28;20041;-78
2022/03/28 03:40:31;;;;;;;10.70;5.03;;;5.30;87.40;;;;;;6285811;28;20102;-79
2022/03/28 03:43:33;;;;;;;11.90;4.82;;;5.20;87.30;;;;;;6288621;28;20049;-80
2022/03/28 03:46:35;;;;;;;9.00;5.03;;;5.30;87.60;;;;;;6283343;28;20047;-80
2022/03/28 03:49:36;;;;;;;23.23;5.72;;;5.20;87.70;;;;;;6282492;28;20064;-79
2022/03/28 03:52:38;;;;;;;12.40;6.28;;;5.20;87.80;;;;;;6282537;28;20114;-79
2022/03/28 03:55:41;;;;;;;13.63;5.15;;;5.10;88.10;;;;;;6283923;28;20048;-80
2022/03/28 03:58:43;;;;;;;15.25;6.07;;;5.00;88.60;;;;;;6283323;28;20037;-79
2022/03/28 04:01:45;;;;;;;14.23;5.68;;;5.00;88.90;;;;;;6282736;28;20052;-79
2022/03/28 04:04:47;;;;;;;16.65;5.43;;;4.90;89.00;;;;;;6285440;28;20075;-80
2022/03/28 04:07:49;;;;;;;12.50;5.60;;;4.90;89.40;;;;;;6288641;28;20048;-80
2022/03/28 04:10:52;;;;;;;11.00;5.15;;;4.90;89.10;;;;;;6287915;28;20526;-78
2022/03/28 04:13:54;;;;;;;14.00;5.95;;;4.90;89.30;;;;;;6290181;28;20567;-79
2022/03/28 04:16:55;;;;;;;10.60;4.75;;;4.80;89.20;;;;;;6289650;28;20073;-79
2022/03/28 04:19:58;;;;;;;15.30;5.95;;;4.80;89.40;;;;;;6289470;28;20132;-79
2022/03/28 04:23:00;;;;;;;12.35;5.75;;;4.80;89.10;;;;;;6287726;28;20045;-79
2022/03/28 04:26:03;;;;;;;11.32;4.75;;;4.80;89.20;;;;;;6288329;28;20144;-79
2022/03/28 04:29:05;;;;;;;14.10;6.20;;;4.80;89.30;;;;;;6288943;28;20546;-79
2022/03/28 04:32:08;;;;;;;19.50;6.10;;;4.70;89.40;;;;;;6289326;28;20103;-79
2022/03/28 04:35:11;;;;;;;14.15;5.80;;;4.70;89.30;;;;;;6288383;28;20057;-79
2022/03/28 04:38:13;;;;;;;15.40;5.50;;;4.70;89.50;;;;;;6287574;28;20041;-79
2022/03/28 04:41:16;;;;;;;15.95;6.70;;;4.60;89.50;;;;;;6287709;28;20109;-78
2022/03/28 04:44:18;;;;;;;14.88;7.25;;;4.60;89.60;;;;;;6288894;28;20057;-80
2022/03/28 04:47:20;;;;;;;14.45;5.68;;;4.60;89.70;;;;;;6290373;28;20044;-79
2022/03/28 04:50:22;;;;;;;11.00;4.95;;;4.60;89.70;;;;;;6288571;28;20122;-79
2022/03/28 04:53:24;;;;;;;14.50;4.88;;;4.50;89.70;;;;;;6289087;28;20053;-79
2022/03/28 04:56:27;;;;;;;12.80;5.95;;;4.50;89.50;;;;;;6286881;28;20048;-78
2022/03/28 04:59:29;;;;;;;11.10;5.30;;;4.50;89.80;;;;;;6285481;28;20099;-78
2022/03/28 05:02:31;;;;;;;15.07;5.68;;;4.50;89.80;;;;;;6288299;28;20049;-79
2022/03/28 05:05:32;;;;;;;16.73;6.30;;;4.40;90.20;;;;;;6288298;28;20194;-79
2022/03/28 05:08:34;;;;;;;12.13;5.78;;;4.50;90.00;;;;;;6287451;28;20068;-80
2022/03/28 05:11:37;;;;;;;12.48;5.78;;;4.50;89.90;;;;;;6285979;28;20072;-79
2022/03/28 05:14:39;;;;;;;15.35;5.40;;;4.50;89.80;;;;;;6287974;28;20116;-79
2022/03/28 05:17:41;;;;;;;17.00;5.63;;;4.50;89.70;;;;;;6288547;28;20102;-82
2022/03/28 05:20:43;;;;;;;9.90;5.45;;;4.50;89.70;;;;;;6287990;28;20052;-80
2022/03/28 05:23:46;;;;;;;10.82;5.50;;;4.40;89.60;;;;;;6288948;28;20052;-79
2022/03/28 05:26:49;;;;;;;13.88;5.63;;;4.50;89.30;;;;;;6288257;28;20053;-80
2022/03/28 05:29:51;;;;;;;16.45;5.95;;;4.50;89.50;;;;;;6287595;28;20126;-79
2022/03/28 05:32:53;;;;;;;16.00;5.78;;;4.60;89.60;;;;;;6283563;28;20059;-80
2022/03/28 05:35:55;;;;;;;17.63;5.20;;;4.60;89.20;;;;;;6285943;28;20055;-80
2022/03/28 05:38:57;;;;;;;15.75;5.97;;;4.70;89.30;;;;;;6285035;28;20041;-79
2022/03/28 05:42:00;;;;;;;15.30;6.25;;;4.70;89.20;;;;;;6284969;28;20041;-79
2022/03/28 05:45:02;;;;;;;23.83;5.90;;;4.80;88.90;;;;;;6286947;28;20512;-78
2022/03/28 05:48:04;;;;;;;13.90;5.25;;;4.90;88.80;;;;;;6286211;28;20052;-78
2022/03/28 05:51:06;;;;;;;13.68;5.43;;;5.00;89.00;;;;;;6287176;28;20103;-79
2022/03/28 05:54:08;;;;;;;20.80;5.97;;;5.20;88.70;;;;;;6288968;28;20096;-79
2022/03/28 05:57:11;;;;;;;10.25;5.43;;;5.30;88.10;;;;;;6287939;28;20044;-79
2022/03/28 06:00:16;;;;;;;17.98;6.15;;;5.50;87.60;;;;;;6285149;28;20391;-79
2022/03/28 06:08:03;;;;;;;16.73;6.78;;;5.90;86.90;;;;;;6273129;28;20060;-81
2022/03/28 06:11:17;;;;;;;17.48;6.47;;;6.20;86.10;;;;;;6278328;28;20687;-81
2022/03/28 06:14:26;;;;;;;14.48;6.93;;;6.40;85.30;;;;;;6263678;28;20059;-80
2022/03/28 06:18:04;;;;;;;22.25;6.70;;;6.70;84.70;;;;;;6265511;28;20048;-79
2022/03/28 06:21:35;;;;;;;12.55;5.57;;;6.90;84.20;;;;;;6260662;28;20052;-79
2022/03/28 06:28:10;;;;;;;17.85;6.32;;;7.40;83.10;;;;;;6281551;28;20052;-80
2022/03/28 06:31:37;;;;;;;18.87;6.87;;;7.70;82.60;;;;;;6237353;28;20052;-80
2022/03/28 06:42:03;;;;;;;14.40;6.32;;;8.70;81.00;;;;;;6272067;28;20052;-80
2022/03/28 06:45:19;;;;;;;29.13;7.00;;;9.10;80.40;;;;;;6279895;28;20049;-79
2022/03/28 06:48:23;;;;;;;15.65;6.35;;;9.50;79.60;;;;;;6265583;28;20053;-79
2022/03/28 06:51:25;;;;;;;15.18;6.25;;;9.90;78.80;;;;;;6284039;28;20055;-79
2022/03/28 06:54:27;;;;;;;14.75;6.22;;;10.20;77.90;;;;;;6286784;28;20052;-80
2022/03/28 06:57:28;;;;;;;21.52;8.02;;;10.60;76.80;;;;;;6284145;28;20073;-80
2022/03/28 07:00:30;;;;;;;17.45;6.45;;;10.90;75.40;;;;;;6285572;28;20135;-80
2022/03/28 07:03:34;;;;;;;22.95;6.25;;;11.20;74.50;;;;;;6285900;28;20044;-80
2022/03/28 07:06:37;;;;;;;20.92;7.28;;;11.60;73.20;;;;;;6287725;28;20238;-80
2022/03/28 07:09:39;;;;;;;16.42;7.53;;;11.90;71.90;;;;;;6285053;28;20053;-80
2022/03/28 07:12:41;;;;;;;21.45;6.63;;;12.30;70.80;;;;;;6283080;28;20083;-80
2022/03/28 07:15:42;;;;;;;18.98;6.53;;;12.60;69.30;;;;;;6284733;28;20178;-79
2022/03/28 07:18:46;;;;;;;12.95;7.00;;;13.10;69.10;;;;;;6285626;28;20122;-81
2022/03/28 07:21:47;;;;;;;19.50;6.80;;;13.40;67.20;;;;;;6284699;28;20132;-81
2022/03/28 07:24:50;;;;;;;12.02;6.35;;;14.00;65.90;;;;;;6285650;28;20215;-80
2022/03/28 07:27:53;;;;;;;15.48;7.25;;;15.10;63.90;;;;;;6285337;28;20056;-80
2022/03/28 07:30:54;;;;;;;12.80;6.43;;;16.50;60.80;;;;;;6286330;28;20061;-81
2022/03/28 07:34:29;;;;;;;16.52;6.82;;;18.40;56.00;;;;;;6285551;28;20049;-81
2022/03/28 07:37:19;;;;;;;15.60;8.85;;;20.20;49.80;;;;;;6285412;28;20056;-81
2022/03/28 07:40:21;;;;;;;14.20;6.78;;;22.00;45.50;;;;;;6285584;28;20061;-81
2022/03/28 07:43:23;;;;;;;15.25;6.95;;;23.10;40.90;;;;;;6286351;28;20053;-82
2022/03/28 07:46:25;;;;;;;14.23;6.93;;;23.80;38.50;;;;;;6283915;28;20064;-81
2022/03/28 07:49:30;;;;;;;13.38;5.80;;;23.90;37.20;;;;;;6283868;28;20050;-82
2022/03/28 07:52:32;;;;;;;13.15;7.32;;;24.00;36.30;;;;;;6288875;28;20087;-81
2022/03/28 07:55:34;;;;;;;13.52;6.80;;;24.00;36.00;;;;;;6285436;28;20114;-81
2022/03/28 07:58:36;;;;;;;16.73;7.22;;;23.50;36.00;;;;;;6285298;28;20041;-82
2022/03/28 08:01:38;;;;;;;17.15;6.95;;;23.00;36.80;;;;;;6287559;28;20063;-82
2022/03/28 08:04:43;;;;;;;16.25;7.68;;;22.70;37.30;;;;;;6289422;28;20128;-81
2022/03/28 08:07:45;;;;;;;14.43;6.60;;;22.50;37.00;;;;;;6288972;28;20098;-81
2022/03/28 08:10:46;;;;;;;14.60;7.00;;;22.60;37.00;;;;;;6289505;28;20128;-82
2022/03/28 08:13:48;;;;;;;17.85;6.80;;;22.90;36.50;;;;;;6288882;28;20048;-81
2022/03/28 08:16:50;;;;;;;13.35;7.45;;;23.20;36.00;;;;;;6288067;28;20234;-81
2022/03/28 08:19:53;;;;;;;16.90;7.05;;;23.60;35.60;;;;;;6287844;28;20111;-81
2022/03/28 08:22:55;;;;;;;11.85;7.05;;;23.80;34.70;;;;;;6288776;28;20113;-81
2022/03/28 08:25:59;;;;;;;13.05;6.88;;;23.80;34.20;;;;;;6288369;28;20053;-82
2022/03/28 08:29:00;;;;;;;13.40;7.03;;;23.50;34.10;;;;;;6287374;28;20407;-81
2022/03/28 08:32:04;;;;;;;17.20;7.10;;;23.50;34.00;;;;;;6290933;28;20081;-82
2022/03/28 08:35:08;;;;;;;21.55;9.13;;;23.20;34.50;;;;;;6291415;28;20071;-83
2022/03/28 08:38:10;;;;;;;12.70;6.40;;;23.10;34.90;;;;;;6297782;28;20041;-80
2022/03/28 08:41:14;;;;;;;21.23;7.05;;;22.90;35.60;;;;;;6286787;28;20053;-82
2022/03/28 08:44:16;;;;;;;19.50;6.97;;;22.80;35.00;;;;;;6290280;28;20112;-81
2022/03/28 08:47:19;;;;;;;16.38;8.70;;;22.90;35.40;;;;;;6290983;28;20072;-82
2022/03/28 08:50:22;;;;;;;18.48;8.30;;;23.30;34.90;;;;;;6285009;28;20045;-79
2022/03/28 08:53:24;;;;;;;17.33;7.35;;;23.80;33.50;;;;;;6284633;28;20165;-80
2022/03/28 08:56:25;;;;;;;17.73;7.63;;;24.30;32.70;;;;;;6288222;28;20080;-82
2022/03/28 08:59:27;;;;;;;17.27;7.05;;;24.90;31.80;;;;;;6290504;28;20037;-82
2022/03/28 09:02:31;;;;;;;13.88;7.43;;;25.40;31.30;;;;;;6287876;28;20073;-83
2022/03/28 09:05:35;;;;;;;20.83;7.63;;;25.80;31.10;;;;;;6287137;28;20056;-83
2022/03/28 09:08:38;;;;;;;15.52;7.68;;;26.40;30.30;;;;;;6288964;28;20044;-81
2022/03/28 09:11:42;;;;;;;12.45;7.75;;;26.90;30.00;;;;;;6286600;28;20044;-82
2022/03/28 09:14:45;;;;;;;15.43;6.90;;;27.40;29.70;;;;;;6289560;28;20045;-83
2022/03/28 09:17:55;;;;;;;16.30;7.30;;;27.80;29.20;;;;;;6289870;28;20045;-83
2022/03/28 09:21:00;;;;;;;13.50;7.95;;;28.10;29.00;;;;;;6287295;28;20048;-82
2022/03/28 09:24:05;;;;;;;14.52;8.00;;;28.60;28.90;;;;;;6282477;28;20511;-83
2022/03/28 09:27:12;;;;;;;16.48;7.65;;;28.90;28.40;;;;;;6282178;28;20422;-82
2022/03/28 09:30:16;;;;;;;13.98;7.60;;;29.20;28.40;;;;;;6281637;28;20060;-81
2022/03/28 09:33:18;;;;;;;13.80;7.50;;;29.70;28.30;;;;;;6283077;28;20049;-85
2022/03/28 09:36:35;;;;;;;17.92;6.95;;;30.10;27.90;;;;;;6287096;28;20044;-83
2022/03/28 09:39:37;;;;;;;19.40;8.07;;;30.40;27.60;;;;;;6285085;28;20493;-83
2022/03/28 09:42:49;;;;;;;16.45;6.85;;;30.60;27.30;;;;;;6281585;28;20069;-82
2022/03/28 09:45:52;;;;;;;14.70;7.90;;;30.50;27.40;;;;;;6280814;28;20049;-83
2022/03/28 09:48:54;;;;;;;14.38;7.43;;;30.00;27.30;;;;;;6279443;28;20171;-82
2022/03/28 09:52:06;;;;;;;13.30;6.80;;;29.20;27.50;;;;;;6279716;28;20051;-82
2022/03/28 09:55:10;;;;;;;27.02;8.98;;;28.30;28.10;;;;;;6288163;28;20098;-81
2022/03/28 09:58:12;;;;;;;16.15;7.63;;;27.60;28.80;;;;;;6291355;28;20183;-82
2022/03/28 10:01:19;;;;;;;14.75;8.25;;;27.00;28.70;;;;;;6290520;28;20041;-82
2022/03/28 10:04:21;;;;;;;21.20;8.10;;;26.60;29.50;;;;;;6283446;28;20048;-82
2022/03/28 10:07:24;;;;;;;16.48;8.98;;;26.10;29.70;;;;;;6281624;28;20140;-82
2022/03/28 10:10:27;;;;;;;16.42;7.05;;;25.70;29.90;;;;;;6280464;28;20055;-82
2022/03/28 10:13:30;;;;;;;22.58;8.00;;;25.50;30.50;;;;;;6282208;28;20357;-82
2022/03/28 10:16:31;;;;;;;15.68;7.85;;;25.60;30.80;;;;;;6280770;28;20049;-82
2022/03/28 10:19:37;;;;;;;18.98;8.80;;;25.70;30.80;;;;;;6282216;28;20198;-82
2022/03/28 10:22:46;;;;;;;15.18;7.07;;;25.70;30.70;;;;;;6283185;28;20112;-82
2022/03/28 10:25:49;;;;;;;18.20;8.77;;;25.60;31.10;;;;;;6284160;28;20049;-82
2022/03/28 10:29:10;;;;;;;22.00;8.45;;;25.70;30.80;;;;;;6282459;28;20052;-82
2022/03/28 10:32:16;;;;;;;25.80;9.73;;;26.00;30.80;;;;;;6283758;28;20131;-82
2022/03/28 10:35:18;;;;;;;20.50;8.88;;;26.10;30.90;;;;;;6283181;28;20055;-82
2022/03/28 10:38:23;;;;;;;18.10;7.78;;;26.10;30.80;;;;;;6284212;28;20090;-82
2022/03/28 10:41:26;;;;;;;19.92;9.65;;;26.30;30.40;;;;;;6283810;28;20068;-82
2022/03/28 10:44:43;;;;;;;16.60;7.47;;;26.60;30.50;;;;;;6283857;28;20064;-82
2022/03/28 10:47:47;;;;;;;16.67;7.53;;;26.90;30.00;;;;;;6284667;28;20084;-82
2022/03/28 10:50:51;;;;;;;19.08;8.90;;;27.20;30.00;;;;;;6283616;28;20544;-82
2022/03/28 10:53:56;;;;;;;23.30;9.30;;;27.30;30.00;;;;;;6282885;28;20053;-83
2022/03/28 10:56:59;;;;;;;22.08;7.75;;;27.60;29.30;;;;;;6283866;28;20110;-82
2022/03/28 11:00:05;;;;;;;17.10;9.15;;;27.30;29.00;;;;;;6283642;28;20056;-83
2022/03/28 11:03:07;;;;;;;22.83;9.13;;;27.20;29.30;;;;;;6284460;28;20037;-82
2022/03/28 11:06:09;;;;;;;17.85;8.30;;;27.40;28.90;;;;;;6283534;28;20061;-83
2022/03/28 11:09:13;;;;;;;16.67;8.18;;;27.40;28.60;;;;;;6283446;28;20041;-83
2022/03/28 11:12:18;;;;;;;17.52;8.43;;;27.40;28.70;;;;;;6284032;28;20127;-82
2022/03/28 11:15:21;;;;;;;28.23;9.60;;;27.60;28.50;;;;;;6284157;28;20103;-82
2022/03/28 11:18:29;;;;;;;20.10;8.93;;;27.70;27.90;;;;;;6282848;28;20060;-82
2022/03/28 11:21:31;;;;;;;21.67;10.70;;;27.60;27.80;;;;;;6285634;28;20059;-82
2022/03/28 11:24:48;;;;;;;18.45;8.30;;;27.50;28.20;;;;;;6283952;28;20069;-83
2022/03/28 11:27:49;;;;;;;20.67;10.82;;;27.60;27.80;;;;;;6287838;28;20049;-82
2022/03/28 11:30:58;;;;;;;25.48;9.45;;;27.70;28.00;;;;;;6284943;28;20134;-83
2022/03/28 11:34:09;;;;;;;18.67;8.32;;;27.80;27.90;;;;;;6283773;28;20096;-83
2022/03/28 11:37:15;;;;;;;19.30;9.90;;;27.90;27.80;;;;;;6287455;28;20048;-82
2022/03/28 11:40:19;;;;;;;18.27;9.35;;;28.30;27.80;;;;;;6288075;28;20134;-83
2022/03/28 11:43:33;;;;;;;22.48;7.72;;;28.40;27.30;;;;;;6290813;28;20052;-81
2022/03/28 11:46:35;;;;;;;15.25;7.93;;;28.40;27.30;;;;;;6283761;28;20045;-81
2022/03/28 11:49:52;;;;;;;15.07;7.60;;;28.60;27.10;;;;;;6278782;28;20040;-81
2022/03/28 11:52:54;;;;;;;33.45;11.63;;;28.80;26.30;;;;;;6286607;28;20040;-82
2022/03/28 11:55:57;;;;;;;17.08;8.13;;;29.00;26.50;;;;;;6286255;28;20045;-83
2022/03/28 11:59:04;;;;;;;18.92;8.80;;;28.90;26.70;;;;;;6281368;28;20144;-82
2022/03/28 12:02:07;;;;;;;24.63;12.70;;;29.00;26.80;;;;;;6282294;28;20120;-80
2022/03/28 12:05:09;;;;;;;18.60;8.80;;;29.30;26.60;;;;;;6278643;28;20524;-81
2022/03/28 12:08:13;;;;;;;19.85;8.60;;;29.50;26.90;;;;;;6278959;28;20057;-83
2022/03/28 12:11:16;;;;;;;23.52;8.20;;;29.70;26.10;;;;;;6278367;28;20076;-81
2022/03/28 12:14:18;;;;;;;17.20;7.90;;;29.90;26.10;;;;;;6277558;28;20446;-81
2022/03/28 12:17:27;;;;;;;16.10;7.80;;;30.00;25.80;;;;;;6277419;28;20068;-80
2022/03/28 12:20:31;;;;;;;20.38;7.78;;;29.90;25.80;;;;;;6277885;28;20060;-82
2022/03/28 12:23:32;;;;;;;17.92;7.32;;;29.90;25.70;;;;;;6278522;28;20112;-82
2022/03/28 12:26:43;;;;;;;14.70;7.40;;;30.10;25.60;;;;;;6276746;28;20116;-80
2022/03/28 12:29:45;;;;;;;16.33;7.57;;;30.20;25.40;;;;;;6278256;28;20079;-82
2022/03/28 12:32:47;;;;;;;14.35;6.97;;;30.30;25.50;;;;;;6278194;28;20053;-81
2022/03/28 12:35:50;;;;;;;14.52;6.82;;;30.30;25.40;;;;;;6277854;28;20049;-80
2022/03/28 12:38:57;;;;;;;16.95;7.30;;;30.30;25.20;;;;;;6274603;28;20701;-80
2022/03/28 12:42:02;;;;;;;14.05;6.72;;;30.40;24.70;;;;;;6274430;28;20052;-79
2022/03/28 12:45:05;;;;;;;21.15;9.95;;;30.50;24.30;;;;;;6275591;28;20560;-79
2022/03/28 12:48:09;;;;;;;12.88;7.10;;;30.50;24.70;;;;;;6275746;28;20624;-81
2022/03/28 12:51:12;;;;;;;11.93;7.63;;;30.50;24.60;;;;;;6278961;28;20053;-79
2022/03/28 12:54:17;;;;;;;16.05;7.07;;;30.50;24.00;;;;;;6275848;28;20146;-78
2022/03/28 12:57:27;;;;;;;17.02;8.52;;;30.60;23.80;;;;;;6275884;28;20727;-79
2022/03/28 13:00:30;;;;;;;16.73;7.95;;;30.60;24.10;;;;;;6279315;28;20052;-81
2022/03/28 13:03:33;;;;;;;12.23;6.78;;;30.60;24.00;;;;;;6285799;28;20084;-79
2022/03/28 13:06:36;;;;;;;14.27;9.43;;;30.50;24.20;;;;;;6296414;28;20112;-79
2022/03/28 13:09:38;;;;;;;11.70;6.28;;;30.60;23.30;;;;;;6298708;28;20064;-80
2022/03/28 13:12:43;;;;;;;15.20;6.38;;;30.70;23.10;;;;;;6290572;28;20087;-81
2022/03/28 13:15:46;;;;;;;11.07;6.03;;;30.70;23.10;;;;;;6278916;28;20411;-82
2022/03/28 13:18:59;;;;;;;14.43;6.80;;;30.50;23.50;;;;;;6278950;28;20051;-82
2022/03/28 13:22:00;;;;;;;16.67;7.07;;;30.20;23.40;;;;;;6277291;28;20053;-83
2022/03/28 13:25:10;;;;;;;18.88;7.10;;;30.10;23.70;;;;;;6277762;28;20048;-81
2022/03/28 13:28:17;;;;;;;20.33;7.40;;;30.30;23.60;;;;;;6278051;28;20133;-80
2022/03/28 13:31:20;;;;;;;19.52;11.25;;;30.40;22.90;;;;;;6280042;28;20041;-82
2022/03/28 13:34:22;;;;;;;14.32;6.57;;;30.40;22.90;;;;;;6279303;28;20049;-78
2022/03/28 13:37:24;;;;;;;14.77;6.40;;;30.30;22.80;;;;;;6281724;28;20045;-82
2022/03/28 13:40:27;;;;;;;14.20;7.07;;;30.20;22.90;;;;;;6293591;28;20033;-78
2022/03/28 13:43:30;;;;;;;13.40;6.32;;;30.20;22.90;;;;;;6280982;28;20175;-81
2022/03/28 13:46:32;;;;;;;11.77;5.82;;;30.10;22.70;;;;;;6276395;28;20049;-82
2022/03/28 13:49:33;;;;;;;9.48;5.85;;;30.20;22.80;;;;;;6276294;28;20041;-84
2022/03/28 13:52:35;;;;;;;18.33;6.53;;;30.20;22.90;;;;;;6276051;28;20048;-81
2022/03/28 13:55:38;;;;;;;12.35;6.32;;;30.20;23.10;;;;;;6277093;28;20079;-83
2022/03/28 13:58:41;;;;;;;13.48;6.88;;;30.10;23.00;;;;;;6276830;28;20541;-84
2022/03/28 14:01:43;;;;;;;12.75;6.65;;;30.00;23.30;;;;;;6276199;28;20041;-84
2022/03/28 14:04:45;;;;;;;14.98;6.13;;;29.90;23.50;;;;;;6276402;28;20051;-81
2022/03/28 14:07:47;;;;;;;9.73;6.00;;;29.80;23.40;;;;;;6274140;28;20049;-81
2022/03/28 14:10:50;;;;;;;11.57;6.47;;;29.90;23.00;;;;;;6274645;28;20049;-81
2022/03/28 14:13:54;;;;;;;23.52;7.50;;;29.90;23.40;;;;;;6274812;28;20049;-83
2022/03/28 14:16:56;;;;;;;17.08;6.75;;;29.90;23.60;;;;;;6276825;28;20053;-84
2022/03/28 14:20:03;;;;;;;16.75;6.85;;;29.90;23.60;;;;;;6268677;28;20041;-83
2022/03/28 14:23:06;;;;;;;16.63;7.07;;;29.90;23.40;;;;;;6274666;28;20049;-83
2022/03/28 14:26:08;;;;;;;18.17;7.75;;;29.90;23.70;;;;;;6275138;28;20052;-83
2022/03/28 14:29:11;;;;;;;16.60;8.02;;;29.50;23.40;;;;;;6273422;28;20049;-80
2022/03/28 14:32:13;;;;;;;18.52;8.57;;;28.90;23.70;;;;;;6274432;28;20075;-83
2022/03/28 14:35:15;;;;;;;14.48;7.72;;;28.30;24.00;;;;;;6274623;28;20056;-84
2022/03/28 14:38:17;;;;;;;15.88;9.05;;;28.00;24.50;;;;;;6274076;28;20045;-82
2022/03/28 14:41:19;;;;;;;19.25;8.77;;;27.80;24.90;;;;;;6274484;28;20048;-83
2022/03/28 14:44:22;;;;;;;13.00;7.45;;;27.60;25.00;;;;;;6275039;28;20453;-83
2022/03/28 14:47:24;;;;;;;22.58;9.00;;;27.40;25.10;;;;;;6273251;28;20045;-80
2022/03/28 14:50:26;;;;;;;10.50;6.20;;;27.20;25.00;;;;;;6273283;28;20043;-82
2022/03/28 14:53:28;;;;;;;17.45;7.15;;;26.90;25.10;;;;;;6275455;28;20050;-82
2022/03/28 14:56:29;;;;;;;25.17;10.88;;;26.60;25.20;;;;;;6273125;28;20045;-79
2022/03/28 14:59:33;;;;;;;21.67;8.00;;;26.40;25.20;;;;;;6274280;28;20051;-82
2022/03/28 15:02:35;;;;;;;20.60;7.28;;;26.30;25.50;;;;;;6273258;28;20079;-81
2022/03/28 15:05:37;;;;;;;13.00;5.97;;;26.20;25.40;;;;;;6273381;28;20068;-81
2022/03/28 15:08:39;;;;;;;29.73;7.32;;;26.10;25.40;;;;;;6274333;28;20049;-80
2022/03/28 15:11:41;;;;;;;17.00;6.35;;;26.00;25.60;;;;;;6280092;28;20515;-82
2022/03/28 15:14:45;;;;;;;22.50;5.85;;;26.00;25.60;;;;;;6279519;28;20055;-80
2022/03/28 15:17:46;;;;;;;18.40;5.68;;;26.10;25.60;;;;;;6279225;28;20704;-83
2022/03/28 15:20:48;;;;;;;12.77;5.75;;;26.20;25.60;;;;;;6279270;28;20051;-82
2022/03/28 15:23:50;;;;;;;14.05;6.00;;;26.20;25.40;;;;;;6279930;28;20052;-81
2022/03/28 15:26:52;;;;;;;15.63;5.95;;;26.10;25.40;;;;;;6279061;28;20040;-80
2022/03/28 15:29:57;;;;;;;13.65;7.10;;;25.90;25.60;;;;;;6279849;28;20041;-82
2022/03/28 15:32:58;;;;;;;11.85;6.18;;;25.60;25.60;;;;;;6279522;28;20049;-82
2022/03/28 15:36:00;;;;;;;16.92;7.05;;;25.40;25.40;;;;;;6280688;28;20052;-81
2022/03/28 15:39:03;;;;;;;15.02;6.20;;;25.20;25.70;;;;;;6280167;28;20084;-82
2022/03/28 15:42:06;;;;;;;14.07;5.95;;;25.00;26.10;;;;;;6280105;28;20059;-81
2022/03/28 15:45:09;;;;;;;13.73;5.93;;;24.90;26.40;;;;;;6279719;28;20044;-82
2022/03/28 15:48:12;;;;;;;27.38;7.32;;;24.70;26.60;;;;;;6279629;28;20041;-82
2022/03/28 15:51:13;;;;;;;12.35;6.13;;;24.60;26.80;;;;;;6279346;28;20144;-82
2022/03/28 15:54:18;;;;;;;14.23;6.35;;;24.50;26.80;;;;;;6279403;28;20045;-81
2022/03/28 15:57:21;;;;;;;7.95;4.63;;;24.50;27.20;;;;;;6279863;28;20519;-82
2022/03/28 16:00:24;;;;;;;9.90;5.13;;;24.50;27.50;;;;;;6277752;28;20061;-82
2022/03/28 16:03:26;;;;;;;14.43;7.28;;;24.40;27.00;;;;;;6278921;28;20134;-82
2022/03/28 16:06:28;;;;;;;16.50;5.68;;;24.20;26.90;;;;;;6279159;28;20143;-82